< < Back
Terminal Aerodrome Forecast


Current Version              Previous Versions:   1  2  3  4  5  6  7  8  9  

Terminal Aerodrome Forecast

310
FTUS42 KTAE 251100
TAFDHN
TAF
KDHN 251120Z 2512/2612 00000KT P6SM SKC
     FM251700 22012G18KT P6SM SCT050 SCT100
     FM260100 24010KT P6SM SCT100
     FM260900 28010KT P6SM SCT250=



Latest METAR

197
SAUS70 KWBC 252200 RRA
MTRDHN
METAR KDHN 252153Z 21016G26KT 10SM CLR 17/02 A2986 RMK AO2 PK WND
21026/2146 SLP111 T01670022


USA.gov is the U.S. government's official web portal to all federal, state and local government web resources and services.